Map

Track Data

SID SEASON NUMBER BASIN SUBBASIN NAME ISO_TIME NATURE LAT LON WMO_WIND WMO_PRES WMO_AGENCY TRACK_TYPE DIST2LAND LANDFALL IFLAG USA_AGENCY USA_ATCF_ID USA_LAT USA_LON USA_RECORD USA_STATUS USA_WIND USA_PRES USA_SSHS USA_R34_NE USA_R34_SE USA_R34_SW USA_R34_NW USA_R50_NE USA_R50_SE USA_R50_SW USA_R50_NW USA_R64_NE USA_R64_SE USA_R64_SW USA_R64_NW USA_POCI USA_ROCI USA_RMW USA_EYE TOKYO_LAT TOKYO_LON TOKYO_GRADE TOKYO_WIND TOKYO_PRES TOKYO_R50_DIR TOKYO_R50_LONG TOKYO_R50_SHORT TOKYO_R30_DIR TOKYO_R30_LONG TOKYO_R30_SHORT TOKYO_LAND CMA_LAT CMA_LON CMA_CAT CMA_WIND CMA_PRES HKO_LAT HKO_LON HKO_CAT HKO_WIND HKO_PRES NEWDELHI_LAT NEWDELHI_LON NEWDELHI_GRADE NEWDELHI_WIND NEWDELHI_PRES NEWDELHI_CI NEWDELHI_DP NEWDELHI_POCI REUNION_LAT REUNION_LON REUNION_TYPE REUNION_WIND REUNION_PRES REUNION_TNUM REUNION_CI REUNION_RMW REUNION_R34_NE REUNION_R34_SE REUNION_R34_SW REUNION_R34_NW REUNION_R50_NE REUNION_R50_SE REUNION_R50_SW REUNION_R50_NW REUNION_R64_NE REUNION_R64_SE REUNION_R64_SW REUNION_R64_NW BOM_LAT BOM_LON BOM_TYPE BOM_WIND BOM_PRES BOM_TNUM BOM_CI BOM_RMW BOM_R34_NE BOM_R34_SE BOM_R34_SW BOM_R34_NW BOM_R50_NE BOM_R50_SE BOM_R50_SW BOM_R50_NW BOM_R64_NE BOM_R64_SE BOM_R64_SW BOM_R64_NW BOM_ROCI BOM_POCI BOM_EYE BOM_POS_METHOD BOM_PRES_METHOD NADI_LAT NADI_LON NADI_CAT NADI_WIND NADI_PRES WELLINGTON_LAT WELLINGTON_LON WELLINGTON_WIND WELLINGTON_PRES DS824_LAT DS824_LON DS824_STAGE DS824_WIND DS824_PRES TD9636_LAT TD9636_LON TD9636_STAGE TD9636_WIND TD9636_PRES TD9635_LAT TD9635_LON TD9635_WIND TD9635_PRES TD9635_ROCI NEUMANN_LAT NEUMANN_LON NEUMANN_CLASS NEUMANN_WIND NEUMANN_PRES MLC_LAT MLC_LON MLC_CLASS MLC_WIND MLC_PRES USA_GUST BOM_GUST BOM_GUST_PER REUNION_GUST REUNION_GUST_PER USA_SEAHGT USA_SEARAD_NE USA_SEARAD_SE USA_SEARAD_SW USA_SEARAD_NW STORM_SPEED STORM_DIR
1973146N12061 1973 50 NI AS NOT_NAMED 1973-05-26 00:00:00 TS 11.7000 61.3000 main 746 678 O________OO___ jtwc_io IO011973 11.7000 61.3000 -1 11.7000 61.3000 TC 25 11.7000 61.3000 1 13 294
1973146N12061 1973 50 NI AS NOT_NAMED 1973-05-26 03:00:00 TS 11.9583 60.6976 main 677 610 P________PP___ IO011973 11.9628 60.6927 -1 11.9628 60.6927 TC 25 11.9495 60.7074 1 13 293
1973146N12061 1973 50 NI AS NOT_NAMED 1973-05-26 06:00:00 TS 12.1929 60.1071 main 610 554 O________OP___ jtwc_io IO011973 12.2000 60.1000 -1 12.2000 60.1000 TC 25 12.1787 60.1213 1 12 290
1973146N12061 1973 50 NI AS NOT_NAMED 1973-05-26 09:00:00 TS 12.3811 59.5398 main 543 488 P________PP___ IO011973 12.3874 59.5350 -1 12.3874 59.5350 TC 25 12.3685 59.5495 1 11 286
1973146N12061 1973 50 NI AS NOT_NAMED 1973-05-26 12:00:00 TS 12.5000 59.0000 main 488 434 O________OO___ jtwc_io IO011973 12.5000 59.0000 -1 12.5000 59.0000 TC 25 12.5000 59.0000 1 10 279
1973146N12061 1973 50 NI AS NOT_NAMED 1973-05-26 15:00:00 TS 12.5353 58.4876 main 434 380 P________PP___ IO011973 12.5224 58.4924 -1 12.5224 58.4924 TC 25 12.5611 58.4779 1 10 271
1973146N12061 1973 50 NI AS NOT_NAMED 1973-05-26 18:00:00 TS 12.5223 57.9923 main 380 326 O________OP___ jtwc_io IO011973 12.5000 58.0000 -1 12.5000 58.0000 TC 25 12.5669 57.9769 1 10 269
1973146N12061 1973 50 NI AS NOT_NAMED 1973-05-26 21:00:00 TS 12.5180 57.4958 main 326 271 P________PP___ IO011973 12.5074 57.5000 -1 12.5074 57.5000 TC 25 12.5392 57.4874 1 10 269
1973146N12061 1973 50 NI AS NOT_NAMED 1973-05-27 00:00:00 TS 12.5000 57.0000 main 271 217 O________OO___ jtwc_io IO011973 12.5000 57.0000 -1 12.5000 57.0000 TC 25 12.5000 57.0000 1 10 267
1973146N12061 1973 50 NI AS NOT_NAMED 1973-05-27 03:00:00 TS 12.4591 56.5067 main 217 164 P________PP___ IO011973 12.4499 56.4999 -1 12.4499 56.4999 TC 25 12.4776 56.5202 1 10 265
1973146N12061 1973 50 NI AS NOT_NAMED 1973-05-27 06:00:00 TS 12.4164 56.0124 main 164 110 O________OP___ jtwc_io IO011973 12.4000 56.0000 -1 12.4000 56.0000 TC 25 12.4492 56.0373 1 10 267
1973146N12061 1973 50 NI AS NOT_NAMED 1973-05-27 09:00:00 TS 12.4020 55.5220 main 110 58 P________PP___ IO011973 12.3923 55.5150 -1 12.3923 55.5150 TC 25 12.4212 55.5358 1 10 269
1973146N12061 1973 50 NI AS NOT_NAMED 1973-05-27 12:00:00 TS 12.4000 55.0000 main 58 15 O________OO___ jtwc_io IO011973 12.4000 55.0000 -1 12.4000 55.0000 TC 25 12.4000 55.0000 1 11 270
1973146N12061 1973 50 NI AS NOT_NAMED 1973-05-27 15:00:00 TS 12.3976 54.4119 main 15 0 P________PP___ IO011973 12.3999 54.4225 -1 12.3999 54.4225 TC 25 12.3931 54.3907 1 12 270
1973146N12061 1973 50 NI AS NOT_NAMED 1973-05-27 18:00:00 TS 12.3976 53.7834 main 0 0 O________OP___ jtwc_io IO011973 12.4000 53.8000 -1 12.4000 53.8000 TC 25 12.3929 53.7501 1 13 270
1973146N12061 1973 50 NI AS NOT_NAMED 1973-05-27 21:00:00 TS 12.3987 53.1315 main 24 24 P________PP___ IO011973 12.4000 53.1425 -1 12.4000 53.1425 TC 25 12.3962 53.1094 1 13 270
1973146N12061 1973 50 NI AS NOT_NAMED 1973-05-28 00:00:00 TS 12.4000 52.5000 main 87 87 O________OO___ jtwc_io IO011973 12.4000 52.5000 -1 12.4000 52.5000 TC 25 12.4000 52.5000 1 12 270
1973146N12061 1973 50 NI AS NOT_NAMED 1973-05-28 03:00:00 TS 12.4006 51.9285 main 93 68 P________PP___ IO011973 12.3999 51.9200 -1 12.3999 51.9200 TC 25 12.4021 51.9453 1 11 270
1973146N12061 1973 50 NI AS NOT_NAMED 1973-05-28 06:00:00 TS 12.4009 51.4125 main 68 55 O________OP___ jtwc_io IO011973 12.4000 51.4000 -1 12.4000 51.4000 TC 25 12.4026 51.4375 1 10 270
1973146N12061 1973 50 NI AS NOT_NAMED 1973-05-28 09:00:00 TS 12.4007 50.9437 main 55 55 P________PP___ IO011973 12.4001 50.9350 -1 12.4001 50.9350 TC 25 12.4018 50.9610 1 9 270
1973146N12061 1973 50 NI AS NOT_NAMED 1973-05-28 12:00:00 TS 12.4000 50.5000 main 57 O________OO___ jtwc_io IO011973 12.4000 50.5000 -1 12.4000 50.5000 TC 25 12.4000 50.5000 6 9 270

About IBTrACS Database

This database is a web-friendly format of International Best Track Archive for Climate Stewardship (IBTrACS), a global best track data archive curated by NOAA dating back to 1842.

Updated: 2021-10-08